sim
Sign-in with your pilot id or email,
or register
Callsign
Passwort

Schedule Details

Flight Number: DLH1961
Departure: Ancona Airport (LIPY) at 05:05
Arrival: Munich Airport (EDDM) at 06:20
Route: Lufthansa Passenger Schedule. Enter filed route here before submitting Pirep.

Weather Information
Getting current METAR information for LIPY 280720Z AUTO 22010KT 9999 FEW079/// 15/10 Q1007
Getting current METAR information for EDDM 280720Z VRB02KT 9999 -RA FEW025 SCT045 06/05 Q1010 NOSIG

Schedule Frequency

Route Map